createdAt,value
2019-01-27T00:00:21.690Z,120.67
2019-01-27T00:02:50.605Z,103.30
2019-01-27T00:05:19.511Z,100.07
2019-01-27T00:07:48.425Z,90.50
2019-01-27T00:10:17.298Z,103.33
2019-01-27T00:12:46.068Z,84.03
2019-01-27T00:15:15.026Z,84.83
2019-01-27T00:17:43.822Z,79.93
2019-01-27T00:20:15.659Z,81.03
2019-01-27T00:22:44.655Z,84.13
2019-01-27T00:25:13.574Z,94.00
2019-01-27T00:27:42.409Z,107.13
2019-01-27T00:30:17.138Z,87.87
2019-01-27T00:32:46.074Z,101.47
2019-01-27T00:35:14.857Z,87.27
2019-01-27T00:37:43.982Z,96.77
2019-01-27T00:40:14.509Z,103.20
2019-01-27T00:42:43.425Z,90.40
2019-01-27T00:45:19.519Z,101.10
2019-01-27T00:47:48.361Z,97.03
2019-01-27T00:50:20.259Z,91.37
2019-01-27T00:52:49.234Z,96.17
2019-01-27T00:55:20.939Z,95.63
2019-01-27T00:57:50.249Z,90.37
2019-01-27T01:00:27.266Z,85.53
2019-01-27T01:02:56.059Z,99.07
2019-01-27T01:05:24.941Z,89.83
2019-01-27T01:07:53.840Z,96.03
2019-01-27T01:10:23.835Z,102.37
2019-01-27T01:12:52.868Z,104.93
2019-01-27T01:15:22.559Z,102.07
2019-01-27T01:17:51.422Z,108.83
2019-01-27T01:20:21.833Z,93.37
2019-01-27T01:22:51.849Z,98.87
2019-01-27T01:25:24.916Z,92.23
2019-01-27T01:27:54.219Z,91.63
2019-01-27T01:30:28.267Z,68.00
2019-01-27T01:32:57.734Z,66.63
2019-01-27T01:35:26.543Z,62.27
2019-01-27T01:37:55.603Z,56.87
2019-01-27T01:40:24.513Z,55.30
2019-01-27T01:42:53.318Z,54.27
2019-01-27T01:45:27.308Z,39.87
2019-01-27T01:47:56.095Z,45.60
2019-01-27T01:50:24.961Z,44.67
2019-01-27T01:52:53.869Z,37.07
2019-01-27T01:55:22.819Z,40.57
2019-01-27T01:57:51.687Z,49.10
2019-01-27T02:00:22.513Z,55.97
2019-01-27T02:02:51.502Z,73.70
2019-01-27T02:05:20.736Z,102.47
2019-01-27T02:07:49.592Z,120.07
2019-01-27T02:10:20.722Z,111.27
2019-01-27T02:12:50.459Z,119.87
2019-01-27T02:15:31.452Z,116.97
2019-01-27T02:18:00.244Z,107.60
2019-01-27T02:20:29.097Z,95.00
2019-01-27T02:22:57.999Z,94.97
2019-01-27T02:25:26.784Z,67.37
2019-01-27T02:27:55.527Z,52.93
2019-01-27T02:30:24.618Z,55.97
2019-01-27T02:32:53.413Z,50.37
2019-01-27T02:35:22.315Z,64.03
2019-01-27T02:37:51.244Z,50.17
2019-01-27T02:40:20.105Z,52.73
2019-01-27T02:42:48.938Z,54.37
2019-01-27T02:45:19.061Z,47.17
2019-01-27T02:47:47.926Z,47.57
2019-01-27T02:50:16.828Z,54.47
2019-01-27T02:52:45.723Z,47.23
2019-01-27T02:55:14.511Z,45.60
2019-01-27T02:57:43.293Z,44.50
2019-01-27T03:00:17.854Z,47.33
2019-01-27T03:02:46.735Z,47.30
2019-01-27T03:05:29.012Z,62.60
2019-01-27T03:07:57.888Z,54.93
2019-01-27T03:10:26.787Z,55.87
2019-01-27T03:12:55.697Z,55.83
2019-01-27T03:15:24.647Z,59.93
2019-01-27T03:17:53.507Z,73.70
2019-01-27T03:20:22.329Z,59.30
2019-01-27T03:22:51.166Z,66.30
2019-01-27T03:25:20.046Z,68.30
2019-01-27T03:27:48.996Z,83.03
2019-01-27T03:30:22.156Z,80.80
2019-01-27T03:32:50.965Z,85.97
2019-01-27T03:35:19.997Z,70.63
2019-01-27T03:37:48.794Z,71.27
2019-01-27T03:40:19.098Z,62.47
2019-01-27T03:42:48.051Z,63.77
2019-01-27T03:45:18.937Z,65.10
2019-01-27T03:47:47.798Z,46.53
2019-01-27T03:50:18.166Z,49.03
2019-01-27T03:52:47.069Z,40.00
2019-01-27T03:55:24.698Z,29.57
2019-01-27T03:57:53.647Z,33.30
2019-01-27T04:00:23.550Z,37.80
2019-01-27T04:02:52.619Z,37.13
2019-01-27T04:05:21.448Z,39.67
2019-01-27T04:07:50.189Z,39.43
2019-01-27T04:10:24.318Z,58.73
2019-01-27T04:12:53.139Z,62.67
2019-01-27T04:15:22.035Z,40.00
2019-01-27T04:17:50.963Z,78.23
2019-01-27T04:20:21.629Z,74.50
2019-01-27T04:22:50.491Z,76.73
2019-01-27T04:25:20.847Z,69.30
2019-01-27T04:27:49.546Z,68.90
2019-01-27T04:30:25.114Z,68.57
2019-01-27T04:32:53.886Z,52.77
2019-01-27T04:35:22.786Z,54.30
2019-01-27T04:37:51.537Z,58.07
2019-01-27T04:40:22.551Z,51.93
2019-01-27T04:42:51.326Z,59.27
2019-01-27T04:45:22.053Z,59.17
2019-01-27T04:47:50.842Z,55.97
2019-01-27T04:50:19.663Z,51.67
2019-01-27T04:52:48.571Z,48.70
2019-01-27T04:55:18.931Z,48.33
2019-01-27T04:57:47.749Z,46.63
2019-01-27T05:00:24.941Z,47.23
2019-01-27T05:02:55.495Z,41.77
2019-01-27T05:05:24.355Z,44.53
2019-01-27T05:07:53.232Z,34.63
2019-01-27T05:10:22.042Z,38.83
2019-01-27T05:12:50.923Z,35.30
2019-01-27T05:15:25.819Z,34.23
2019-01-27T05:17:54.575Z,47.47
2019-01-27T05:20:23.337Z,48.13
2019-01-27T05:22:52.273Z,40.77
2019-01-27T05:25:21.099Z,38.87
2019-01-27T05:27:49.894Z,41.83
2019-01-27T05:30:23.099Z,53.13
2019-01-27T05:32:52.028Z,44.50
2019-01-27T05:35:20.934Z,50.73
2019-01-27T05:37:49.697Z,51.87
2019-01-27T05:40:19.682Z,62.10
2019-01-27T05:42:48.494Z,70.40
2019-01-27T05:45:22.251Z,63.07
2019-01-27T05:47:51.125Z,54.43
2019-01-27T05:50:20.396Z,56.50
2019-01-27T05:52:49.287Z,58.70
2019-01-27T05:55:20.097Z,55.60
2019-01-27T05:57:49.022Z,54.73
2019-01-27T06:00:25.059Z,54.90
2019-01-27T06:02:53.782Z,61.30
2019-01-27T06:05:22.629Z,64.53
2019-01-27T06:07:51.642Z,66.27
2019-01-27T06:10:20.301Z,65.27
2019-01-27T06:12:49.137Z,80.23
2019-01-27T06:15:19.525Z,56.67
2019-01-27T06:17:49.450Z,52.70
2019-01-27T06:20:18.465Z,53.87
2019-01-27T06:22:47.401Z,55.77
2019-01-27T06:25:19.874Z,52.77
2019-01-27T06:27:48.690Z,54.57
2019-01-27T06:30:28.741Z,52.30
2019-01-27T06:32:59.286Z,58.87
2019-01-27T06:35:28.139Z,57.00
2019-01-27T06:37:57.013Z,63.43
2019-01-27T06:40:25.863Z,60.03
2019-01-27T06:42:54.700Z,64.90
2019-01-27T06:45:23.558Z,71.57
2019-01-27T06:47:52.389Z,69.27
2019-01-27T06:50:21.177Z,75.17
2019-01-27T06:52:50.020Z,68.20
2019-01-27T06:55:20.712Z,58.80
2019-01-27T06:57:49.573Z,72.10
2019-01-27T07:00:30.611Z,65.23
2019-01-27T07:03:01.081Z,64.50
2019-01-27T07:05:31.417Z,87.43
2019-01-27T07:08:08.122Z,75.83
2019-01-27T07:10:44.332Z,68.10
2019-01-27T07:13:26.910Z,68.50
2019-01-27T07:16:00.129Z,69.10
2019-01-27T07:18:30.554Z,76.87
2019-01-27T07:21:06.511Z,76.40
2019-01-27T07:23:48.897Z,72.93
2019-01-27T07:26:22.011Z,72.07
2019-01-27T07:28:52.456Z,75.43
2019-01-27T07:31:25.679Z,63.43
2019-01-27T07:33:56.244Z,65.37
2019-01-27T07:36:26.719Z,56.33
2019-01-27T07:39:00.191Z,70.77
2019-01-27T07:41:33.478Z,153.97
2019-01-27T07:44:03.929Z,160.87
2019-01-27T07:46:34.417Z,109.27
2019-01-27T07:49:10.889Z,86.13
2019-01-27T07:51:56.710Z,70.47
2019-01-27T07:54:33.335Z,92.27
2019-01-27T07:57:13.323Z,58.73
2019-01-27T07:59:46.946Z,64.03
2019-01-27T08:02:26.598Z,83.33
2019-01-27T08:04:57.095Z,74.87
2019-01-27T08:07:39.857Z,105.00
2019-01-27T08:10:11.146Z,96.73
2019-01-27T08:12:44.352Z,128.03
2019-01-27T08:15:31.291Z,127.63
2019-01-27T08:18:01.830Z,136.97
2019-01-27T08:20:32.540Z,86.03
2019-01-27T08:23:08.861Z,41.97
2019-01-27T08:25:39.293Z,64.00
2019-01-27T08:28:26.045Z,55.40
2019-01-27T08:30:59.506Z,90.27
2019-01-27T08:33:30.013Z,107.93
2019-01-27T08:36:03.155Z,85.70
2019-01-27T08:38:49.913Z,123.87
2019-01-27T08:41:35.667Z,121.23
2019-01-27T08:44:08.674Z,49.50
2019-01-27T08:46:39.145Z,21.53
2019-01-27T08:49:08.074Z,22.13
2019-01-27T08:51:36.729Z,29.97
2019-01-27T08:54:05.898Z,25.53
2019-01-27T08:56:34.764Z,32.27
2019-01-27T08:59:03.679Z,47.30
2019-01-27T09:01:39.951Z,29.03
2019-01-27T09:04:10.500Z,32.07
2019-01-27T09:06:41.007Z,24.30
2019-01-27T09:09:13.975Z,18.83
2019-01-27T09:11:59.724Z,20.10
2019-01-27T09:14:33.135Z,16.57
2019-01-27T09:17:03.406Z,19.40
2019-01-27T09:19:33.907Z,21.90
2019-01-27T09:22:07.390Z,17.57
2019-01-27T09:24:40.779Z,17.33
2019-01-27T09:27:11.249Z,20.07
2019-01-27T09:29:51.164Z,28.30
2019-01-27T09:32:33.338Z,32.57
2019-01-27T09:35:15.586Z,39.90
2019-01-27T09:37:54.815Z,32.57
2019-01-27T09:40:34.537Z,60.17
2019-01-27T09:43:04.963Z,48.87
2019-01-27T09:45:44.374Z,31.40
2019-01-27T09:48:21.084Z,24.47
2019-01-27T09:51:00.770Z,29.70
2019-01-27T09:53:34.191Z,30.23
2019-01-27T09:56:10.913Z,30.30
2019-01-27T09:58:41.294Z,23.87
2019-01-27T10:01:14.683Z,23.70
2019-01-27T10:03:54.310Z,22.93
2019-01-27T10:06:30.798Z,22.37
2019-01-27T10:09:04.289Z,23.53
2019-01-27T10:11:34.827Z,22.87
2019-01-27T10:14:05.607Z,29.67
2019-01-27T10:16:36.039Z,28.77
2019-01-27T10:19:12.476Z,35.83
2019-01-27T10:21:43.118Z,44.30
2019-01-27T10:24:28.800Z,43.63
2019-01-27T10:27:05.386Z,37.13
2019-01-27T10:29:38.740Z,31.87
2019-01-27T10:32:09.155Z,41.00
2019-01-27T10:34:43.167Z,24.70
2019-01-27T10:37:19.469Z,22.67
2019-01-27T10:39:49.992Z,38.93
2019-01-27T10:42:22.825Z,44.10
2019-01-27T10:44:53.342Z,44.87
2019-01-27T10:47:32.572Z,49.20
2019-01-27T10:50:03.066Z,31.53
2019-01-27T10:52:39.318Z,32.73
2019-01-27T10:55:31.415Z,27.87
2019-01-27T10:58:02.041Z,40.37
2019-01-27T11:00:48.677Z,22.23
2019-01-27T11:03:28.569Z,24.57
2019-01-27T11:05:58.919Z,21.10
2019-01-27T11:08:38.512Z,17.27
2019-01-27T11:11:08.801Z,32.63
2019-01-27T11:13:51.709Z,32.43
2019-01-27T11:16:31.321Z,33.37
2019-01-27T11:19:20.008Z,30.80
2019-01-27T11:21:50.552Z,26.00
2019-01-27T11:24:29.811Z,33.00
2019-01-27T11:27:00.194Z,41.23
2019-01-27T11:29:30.917Z,33.17
2019-01-27T11:32:17.491Z,34.00
2019-01-27T11:34:47.897Z,35.57
2019-01-27T11:37:34.898Z,42.13
2019-01-27T11:40:12.550Z,89.67
2019-01-27T11:42:54.727Z,67.57
2019-01-27T11:45:37.368Z,53.93
2019-01-27T11:48:10.675Z,84.07
2019-01-27T11:50:40.977Z,72.50
2019-01-27T11:53:09.773Z,67.80
2019-01-27T11:55:38.634Z,71.97
2019-01-27T11:58:07.562Z,75.23
2019-01-27T12:00:37.607Z,74.50
2019-01-27T12:03:06.588Z,90.47
2019-01-27T12:05:35.851Z,60.27
2019-01-27T12:08:04.951Z,40.07
2019-01-27T12:10:33.831Z,37.57
2019-01-27T12:13:02.639Z,38.97
2019-01-27T12:15:31.355Z,41.20
2019-01-27T12:18:00.245Z,41.37
2019-01-27T12:20:29.115Z,45.77
2019-01-27T12:22:57.973Z,43.23
2019-01-27T12:25:26.862Z,49.13
2019-01-27T12:27:55.863Z,48.87
2019-01-27T12:30:24.840Z,55.13
2019-01-27T12:32:53.740Z,55.90
2019-01-27T12:35:22.436Z,75.60
2019-01-27T12:37:51.192Z,130.53
2019-01-27T12:40:22.490Z,141.00
2019-01-27T12:42:51.370Z,118.13
2019-01-27T12:45:20.331Z,87.10
2019-01-27T12:47:49.275Z,69.57
2019-01-27T12:50:19.698Z,56.97
2019-01-27T12:52:50.985Z,93.77
2019-01-27T12:55:19.894Z,93.77
2019-01-27T12:57:48.725Z,138.47
2019-01-27T13:00:22.954Z,90.17
2019-01-27T13:02:51.786Z,94.53
2019-01-27T13:05:20.564Z,120.87
2019-01-27T13:07:49.283Z,101.17
2019-01-27T13:10:18.465Z,67.83
2019-01-27T13:12:47.655Z,78.27
2019-01-27T13:15:22.331Z,83.20
2019-01-27T13:17:51.471Z,63.30
2019-01-27T13:20:21.510Z,49.70
2019-01-27T13:22:51.304Z,59.90
2019-01-27T13:25:21.096Z,47.43
2019-01-27T13:27:49.905Z,39.13
2019-01-27T13:30:23.817Z,43.27
2019-01-27T13:32:52.635Z,41.43
2019-01-27T13:35:22.965Z,44.37
2019-01-27T13:37:52.748Z,36.63
2019-01-27T13:40:23.466Z,45.23
2019-01-27T13:42:52.228Z,43.83
2019-01-27T13:45:29.106Z,34.17
2019-01-27T13:47:59.170Z,34.20
2019-01-27T13:50:28.220Z,46.00
2019-01-27T13:52:57.288Z,57.63
2019-01-27T13:55:31.101Z,51.50
2019-01-27T13:58:00.349Z,46.93
2019-01-27T14:00:42.868Z,38.23
2019-01-27T14:03:11.741Z,45.97
2019-01-27T14:05:41.016Z,31.43
2019-01-27T14:08:09.864Z,33.93
2019-01-27T14:10:38.694Z,30.83
2019-01-27T14:13:07.721Z,46.33
2019-01-27T14:15:39.128Z,54.87
2019-01-27T14:18:08.663Z,57.10
2019-01-27T14:20:37.597Z,40.47
2019-01-27T14:23:06.438Z,58.30
2019-01-27T14:25:35.088Z,38.97
2019-01-27T14:28:05.008Z,40.70
2019-01-27T14:30:42.834Z,34.40
2019-01-27T14:33:11.716Z,33.50
2019-01-27T14:35:40.668Z,62.80
2019-01-27T14:38:09.722Z,41.10
2019-01-27T14:40:38.726Z,33.40
2019-01-27T14:43:07.571Z,48.03
2019-01-27T14:45:36.533Z,38.77
2019-01-27T14:48:06.696Z,42.43
2019-01-27T14:50:41.343Z,45.27
2019-01-27T14:53:10.220Z,68.03
2019-01-27T14:55:39.070Z,114.97
2019-01-27T14:58:08.211Z,176.90
2019-01-27T15:00:39.886Z,175.10
2019-01-27T15:03:09.181Z,236.37
2019-01-27T15:05:38.144Z,214.37
2019-01-27T15:08:07.406Z,168.50
2019-01-27T15:10:36.307Z,90.93
2019-01-27T15:13:06.191Z,89.13
2019-01-27T15:15:35.210Z,81.43
2019-01-27T15:18:04.970Z,64.97
2019-01-27T15:20:40.038Z,86.27
2019-01-27T15:23:08.839Z,204.83
2019-01-27T15:25:37.734Z,132.43
2019-01-27T15:28:06.753Z,100.60
2019-01-27T15:30:37.502Z,113.87
2019-01-27T15:33:07.533Z,116.87
2019-01-27T15:35:36.771Z,126.83
2019-01-27T15:38:05.659Z,102.27
2019-01-27T15:40:34.575Z,70.10
2019-01-27T15:43:03.458Z,68.53
2019-01-27T15:45:33.348Z,80.07
2019-01-27T15:48:02.387Z,110.30
2019-01-27T15:50:36.716Z,126.07
2019-01-27T15:53:06.644Z,93.20
2019-01-27T15:55:38.111Z,99.07
2019-01-27T15:58:07.414Z,140.60
2019-01-27T16:00:37.075Z,100.10
2019-01-27T16:03:05.953Z,130.67
2019-01-27T16:05:35.074Z,111.00
2019-01-27T16:08:04.245Z,151.47
2019-01-27T16:10:33.072Z,134.37
2019-01-27T16:13:01.839Z,202.27
2019-01-27T16:15:35.653Z,134.73
2019-01-27T16:18:05.228Z,152.60
2019-01-27T16:20:34.070Z,117.70
2019-01-27T16:23:13.631Z,128.13
2019-01-27T16:25:42.603Z,117.43
2019-01-27T16:28:11.636Z,105.20
2019-01-27T16:31:00.256Z,102.40
2019-01-27T16:33:36.839Z,101.97
2019-01-27T16:36:05.854Z,122.03
2019-01-27T16:38:34.833Z,139.67
2019-01-27T16:41:03.716Z,156.43
2019-01-27T16:43:32.833Z,109.97
2019-01-27T16:46:01.639Z,86.73
2019-01-27T16:48:30.515Z,137.43
2019-01-27T16:50:59.599Z,122.87
2019-01-27T16:53:28.489Z,132.23
2019-01-27T16:55:57.711Z,109.40
2019-01-27T16:58:29.232Z,135.93
2019-01-27T17:00:58.900Z,126.30
2019-01-27T17:03:27.893Z,97.30
2019-01-27T17:05:56.973Z,117.27
2019-01-27T17:08:27.536Z,108.23
2019-01-27T17:10:56.486Z,95.80
2019-01-27T17:13:25.791Z,119.97
2019-01-27T17:15:54.738Z,136.80
2019-01-27T17:18:23.707Z,100.10
2019-01-27T17:20:52.688Z,111.83
2019-01-27T17:23:22.163Z,92.07
2019-01-27T17:25:53.591Z,126.60
2019-01-27T17:28:21.638Z,125.23
2019-01-27T17:30:50.495Z,125.13
2019-01-27T17:33:19.380Z,134.53
2019-01-27T17:35:48.285Z,140.93
2019-01-27T17:38:17.142Z,126.60
2019-01-27T17:40:45.966Z,134.47
2019-01-27T17:43:14.910Z,83.80
2019-01-27T17:45:43.735Z,76.43
2019-01-27T17:48:12.595Z,100.07
2019-01-27T17:50:41.487Z,80.37
2019-01-27T17:53:10.374Z,101.10
2019-01-27T17:55:39.890Z,94.40
2019-01-27T17:58:33.321Z,104.53
2019-01-27T18:01:20.007Z,126.70
2019-01-27T18:03:51.034Z,162.07
2019-01-27T18:06:27.049Z,118.17
2019-01-27T18:09:09.604Z,123.67
2019-01-27T18:11:40.031Z,121.47
2019-01-27T18:14:10.568Z,113.47
2019-01-27T18:16:39.557Z,92.90
2019-01-27T18:19:08.328Z,91.13
2019-01-27T18:21:37.260Z,116.33
2019-01-27T18:24:06.207Z,131.63
2019-01-27T18:26:35.177Z,145.47
2019-01-27T18:29:04.259Z,120.50
2019-01-27T18:31:33.185Z,127.83
2019-01-27T18:34:02.010Z,166.47
2019-01-27T18:36:30.968Z,131.73
2019-01-27T18:38:59.678Z,123.50
2019-01-27T18:41:28.492Z,91.57
2019-01-27T18:43:57.332Z,105.80
2019-01-27T18:46:27.983Z,83.43
2019-01-27T18:48:57.149Z,98.97
2019-01-27T18:51:26.366Z,98.80
2019-01-27T18:54:12.002Z,68.30
2019-01-27T18:56:42.476Z,78.20
2019-01-27T18:59:12.839Z,77.70
2019-01-27T19:02:01.362Z,79.23
2019-01-27T19:04:37.822Z,88.03
2019-01-27T19:07:20.668Z,74.50
2019-01-27T19:09:51.075Z,66.70
2019-01-27T19:12:30.282Z,73.10
2019-01-27T19:15:00.709Z,68.77
2019-01-27T19:17:31.203Z,64.80
2019-01-27T19:20:01.866Z,67.47
2019-01-27T19:22:32.974Z,59.27
2019-01-27T19:25:03.651Z,61.30
2019-01-27T19:27:36.913Z,55.00
2019-01-27T19:30:26.545Z,57.50
2019-01-27T19:33:02.962Z,69.80
2019-01-27T19:35:33.555Z,61.33
2019-01-27T19:38:10.116Z,66.33
2019-01-27T19:40:43.357Z,47.27
2019-01-27T19:43:16.828Z,50.37
2019-01-27T19:45:53.325Z,83.37
2019-01-27T19:48:27.026Z,101.90
2019-01-27T19:50:57.582Z,112.10
2019-01-27T19:53:28.184Z,236.73
2019-01-27T19:55:58.830Z,219.37
2019-01-27T19:58:32.481Z,180.97
2019-01-27T20:01:03.261Z,117.93
2019-01-27T20:03:50.133Z,114.13
2019-01-27T20:06:26.477Z,110.73
2019-01-27T20:08:59.748Z,101.77
2019-01-27T20:11:47.032Z,82.10
2019-01-27T20:14:32.509Z,80.57
2019-01-27T20:17:06.382Z,77.13
2019-01-27T20:19:49.484Z,81.07
2019-01-27T20:22:32.398Z,72.70
2019-01-27T20:25:02.783Z,80.93
2019-01-27T20:27:34.379Z,77.73
2019-01-27T20:30:14.369Z,83.97
2019-01-27T20:33:00.720Z,86.67
2019-01-27T20:35:31.369Z,98.90
2019-01-27T20:38:16.938Z,93.90
2019-01-27T20:41:05.944Z,74.93
2019-01-27T20:43:48.895Z,85.27
2019-01-27T20:46:19.480Z,117.33
2019-01-27T20:48:52.407Z,116.40
2019-01-27T20:51:22.925Z,86.67
2019-01-27T20:53:53.385Z,107.87
2019-01-27T20:56:42.199Z,90.70
2019-01-27T20:59:12.843Z,85.90
2019-01-27T21:01:43.349Z,89.30
2019-01-27T21:04:16.495Z,97.17
2019-01-27T21:06:46.910Z,99.00
2019-01-27T21:09:34.114Z,97.77
2019-01-27T21:12:04.737Z,115.60
2019-01-27T21:14:35.505Z,96.93
2019-01-27T21:17:09.301Z,107.60
2019-01-27T21:19:39.902Z,98.43
2019-01-27T21:22:08.903Z,105.23
2019-01-27T21:24:37.897Z,85.40
2019-01-27T21:27:06.865Z,72.07
2019-01-27T21:29:35.852Z,74.87
2019-01-27T21:32:05.241Z,61.53
2019-01-27T21:34:34.094Z,62.40
2019-01-27T21:37:03.175Z,74.83
2019-01-27T21:39:32.502Z,85.03
2019-01-27T21:42:01.462Z,82.37
2019-01-27T21:44:30.274Z,79.70
2019-01-27T21:46:59.318Z,66.53
2019-01-27T21:49:28.901Z,59.37
2019-01-27T21:51:58.339Z,78.80
2019-01-27T21:54:27.169Z,69.97
2019-01-27T21:56:56.158Z,64.10
2019-01-27T21:59:25.009Z,66.87
2019-01-27T22:01:53.938Z,74.40
2019-01-27T22:04:22.771Z,68.60
2019-01-27T22:06:51.536Z,73.13
2019-01-27T22:09:20.496Z,83.93
2019-01-27T22:11:49.298Z,108.43
2019-01-27T22:14:18.090Z,89.80
2019-01-27T22:16:46.797Z,82.73
2019-01-27T22:19:17.175Z,95.70
2019-01-27T22:21:46.126Z,91.30
2019-01-27T22:24:15.059Z,147.33
2019-01-27T22:26:44.306Z,148.60
2019-01-27T22:29:13.054Z,167.77
2019-01-27T22:31:42.036Z,149.10
2019-01-27T22:34:10.863Z,149.73
2019-01-27T22:36:39.701Z,397.33
2019-01-27T22:39:09.058Z,346.70
2019-01-27T22:41:37.799Z,418.70
2019-01-27T22:44:06.777Z,466.07
2019-01-27T22:46:35.575Z,380.17
2019-01-27T22:49:04.612Z,225.90
2019-01-27T22:51:33.375Z,198.60
2019-01-27T22:54:02.299Z,361.63
2019-01-27T22:56:31.100Z,203.70
2019-01-27T22:59:00.148Z,125.27
2019-01-27T23:01:29.233Z,106.53
2019-01-27T23:03:58.053Z,156.33
2019-01-27T23:06:26.957Z,127.30
2019-01-27T23:08:55.845Z,115.83
2019-01-27T23:11:24.594Z,135.13
2019-01-27T23:13:53.459Z,125.20
2019-01-27T23:16:22.311Z,91.53
2019-01-27T23:18:51.191Z,129.50
2019-01-27T23:21:20.011Z,104.63
2019-01-27T23:23:48.979Z,102.03
2019-01-27T23:26:17.814Z,88.50
2019-01-27T23:28:46.850Z,86.40
2019-01-27T23:31:15.616Z,95.60
2019-01-27T23:33:44.707Z,81.60
2019-01-27T23:36:13.612Z,75.63
2019-01-27T23:38:42.575Z,76.53
2019-01-27T23:41:12.299Z,77.57
2019-01-27T23:43:41.257Z,84.33
2019-01-27T23:46:10.176Z,94.97
2019-01-27T23:48:38.922Z,79.20
2019-01-27T23:51:07.673Z,63.37
2019-01-27T23:53:36.482Z,58.10
2019-01-27T23:56:05.507Z,62.20
2019-01-27T23:58:34.347Z,58.80
